createdAt,value
2024-01-27T00:02:18.569Z,3.72
2024-01-27T00:04:46.046Z,3.65
2024-01-27T00:07:13.525Z,3.64
2024-01-27T00:09:42.333Z,3.61
2024-01-27T00:12:12.319Z,3.60
2024-01-27T00:14:40.527Z,3.59
2024-01-27T00:17:11.031Z,3.56
2024-01-27T00:19:41.154Z,3.57
2024-01-27T00:22:12.331Z,3.55
2024-01-27T00:24:42.357Z,3.52
2024-01-27T00:27:09.805Z,3.49
2024-01-27T00:29:40.554Z,3.49
2024-01-27T00:32:07.923Z,3.48
2024-01-27T00:34:35.361Z,3.42
2024-01-27T00:37:05.673Z,3.39
2024-01-27T00:39:34.301Z,3.38
2024-01-27T00:42:01.633Z,3.34
2024-01-27T00:44:29.409Z,3.36
2024-01-27T00:46:58.833Z,3.35
2024-01-27T00:49:27.692Z,3.34
2024-01-27T00:51:57.847Z,3.34
2024-01-27T00:54:27.261Z,3.32
2024-01-27T00:56:54.800Z,3.30
2024-01-27T00:59:22.297Z,3.28
2024-01-27T01:02:24.810Z,3.29
2024-01-27T01:04:54.833Z,3.27
2024-01-27T01:07:25.357Z,3.24
2024-01-27T01:09:53.081Z,3.23
2024-01-27T01:12:20.398Z,3.24
2024-01-27T01:14:50.497Z,3.25
2024-01-27T01:17:17.827Z,3.24
2024-01-27T01:19:45.312Z,3.22
2024-01-27T01:22:13.873Z,3.21
2024-01-27T01:24:41.282Z,3.17
2024-01-27T01:27:09.647Z,3.13
2024-01-27T01:29:37.136Z,3.14
2024-01-27T01:32:05.033Z,3.10
2024-01-27T01:34:35.866Z,3.12
2024-01-27T01:37:04.141Z,3.12
2024-01-27T01:39:31.684Z,3.10
2024-01-27T01:41:59.008Z,3.07
2024-01-27T01:44:31.885Z,3.08
2024-01-27T01:47:01.005Z,3.03
2024-01-27T01:49:28.596Z,3.01
2024-01-27T01:51:56.225Z,3.00
2024-01-27T01:54:24.355Z,2.96
2024-01-27T01:56:52.319Z,2.93
2024-01-27T01:59:22.298Z,2.90
2024-01-27T02:01:49.606Z,2.85
2024-01-27T02:04:19.720Z,2.82
2024-01-27T02:06:47.100Z,2.77
2024-01-27T02:09:17.381Z,2.74
2024-01-27T02:11:44.688Z,2.72
2024-01-27T02:14:14.830Z,2.70
2024-01-27T02:16:42.157Z,2.64
2024-01-27T02:19:15.224Z,2.60
2024-01-27T02:21:42.626Z,2.59
2024-01-27T02:24:12.859Z,2.55
2024-01-27T02:26:40.189Z,2.52
2024-01-27T02:29:07.526Z,2.50
2024-01-27T02:31:35.162Z,2.46
2024-01-27T02:34:02.745Z,2.40
2024-01-27T02:36:32.757Z,2.35
2024-01-27T02:39:00.147Z,2.25
2024-01-27T02:41:30.413Z,2.19
2024-01-27T02:43:57.782Z,2.15
2024-01-27T02:46:27.926Z,2.14
2024-01-27T02:48:55.452Z,2.14
2024-01-27T02:51:26.024Z,2.12
2024-01-27T02:53:53.395Z,2.13
2024-01-27T02:56:20.769Z,2.15
2024-01-27T02:58:48.139Z,2.17
2024-01-27T03:01:15.707Z,2.15
2024-01-27T03:03:44.319Z,2.18
2024-01-27T03:06:14.463Z,2.20
2024-01-27T03:08:41.898Z,2.19
2024-01-27T03:11:10.058Z,2.23
2024-01-27T03:13:37.390Z,2.26
2024-01-27T03:16:05.000Z,2.33
2024-01-27T03:18:32.496Z,2.37
2024-01-27T03:21:02.223Z,2.44
2024-01-27T03:23:29.626Z,2.47
2024-01-27T03:25:56.952Z,2.48
2024-01-27T03:28:24.325Z,2.54
2024-01-27T03:30:51.654Z,2.56
2024-01-27T03:33:19.087Z,2.54
2024-01-27T03:35:46.516Z,2.53
2024-01-27T03:38:14.182Z,2.53
2024-01-27T03:40:41.401Z,2.53
2024-01-27T03:43:11.271Z,2.54
2024-01-27T03:45:38.699Z,2.52
2024-01-27T03:48:09.254Z,2.51
2024-01-27T03:50:36.711Z,2.50
2024-01-27T03:53:04.959Z,2.49
2024-01-27T03:55:33.225Z,2.50
2024-01-27T03:58:00.492Z,2.51
2024-01-27T04:00:29.354Z,2.50
2024-01-27T04:02:58.713Z,2.49
2024-01-27T04:05:28.594Z,2.50
2024-01-27T04:07:58.871Z,2.51
2024-01-27T04:10:26.218Z,2.54
2024-01-27T04:12:56.470Z,2.53
2024-01-27T04:15:23.920Z,2.55
2024-01-27T04:17:51.391Z,2.54
2024-01-27T04:20:18.837Z,2.53
2024-01-27T04:22:46.171Z,2.55
2024-01-27T04:25:13.691Z,2.54
2024-01-27T04:27:42.577Z,2.51
2024-01-27T04:30:10.497Z,2.52
2024-01-27T04:32:41.078Z,2.48
2024-01-27T04:35:14.874Z,2.46
2024-01-27T04:37:42.346Z,2.49
2024-01-27T04:40:10.190Z,2.48
2024-01-27T04:42:39.751Z,2.45
2024-01-27T04:45:08.494Z,2.41
2024-01-27T04:47:38.924Z,2.45
2024-01-27T04:50:06.613Z,2.40
2024-01-27T04:52:34.122Z,2.34
2024-01-27T04:55:04.507Z,2.29
2024-01-27T04:57:33.133Z,2.27
2024-01-27T05:00:00.777Z,2.24
2024-01-27T05:02:28.802Z,2.25
2024-01-27T05:04:56.173Z,2.23
2024-01-27T05:07:23.514Z,2.19
2024-01-27T05:09:51.189Z,2.15
2024-01-27T05:12:18.606Z,2.15
2024-01-27T05:14:48.946Z,2.09
2024-01-27T05:17:16.465Z,2.07
2024-01-27T05:19:43.914Z,2.04
2024-01-27T05:22:11.204Z,2.00
2024-01-27T05:24:38.623Z,2.03
2024-01-27T05:27:06.053Z,1.97
2024-01-27T05:29:33.476Z,1.93
2024-01-27T05:32:03.670Z,1.88
2024-01-27T05:34:31.190Z,1.87
2024-01-27T05:37:01.472Z,1.81
2024-01-27T05:39:30.870Z,1.78
2024-01-27T05:41:58.330Z,1.71
2024-01-27T05:44:25.673Z,1.69
2024-01-27T05:46:52.980Z,1.65
2024-01-27T05:49:20.456Z,1.63
2024-01-27T05:51:47.896Z,1.60
2024-01-27T05:54:19.214Z,1.60
2024-01-27T05:56:46.552Z,1.55
2024-01-27T05:59:13.987Z,1.51
2024-01-27T06:01:42.456Z,1.50
2024-01-27T06:04:09.962Z,1.47
2024-01-27T06:06:41.028Z,1.44
2024-01-27T06:09:12.836Z,1.47
2024-01-27T06:11:43.383Z,1.45
2024-01-27T06:14:11.154Z,1.45
2024-01-27T06:16:38.581Z,1.47
2024-01-27T06:19:06.154Z,1.47
2024-01-27T06:21:33.779Z,1.47
2024-01-27T06:24:01.997Z,1.47
2024-01-27T06:26:29.456Z,1.47
2024-01-27T06:28:56.781Z,1.47
2024-01-27T06:31:24.087Z,1.48
2024-01-27T06:33:51.486Z,1.50
2024-01-27T06:36:24.491Z,1.52
2024-01-27T06:38:53.098Z,1.55
2024-01-27T06:41:20.610Z,1.59
2024-01-27T06:43:47.918Z,1.64
2024-01-27T06:46:16.902Z,1.63
2024-01-27T06:48:44.941Z,1.66
2024-01-27T06:51:12.462Z,1.70
2024-01-27T06:53:39.919Z,1.73
2024-01-27T06:56:08.536Z,1.76
2024-01-27T06:58:36.215Z,1.80
2024-01-27T07:01:04.016Z,1.81
2024-01-27T07:03:31.494Z,1.82
2024-01-27T07:06:02.568Z,1.79
2024-01-27T07:08:38.460Z,1.77
2024-01-27T07:11:06.523Z,1.76
2024-01-27T07:13:34.976Z,1.77
2024-01-27T07:16:02.316Z,1.75
2024-01-27T07:18:30.664Z,1.76
2024-01-27T07:21:00.884Z,1.77
2024-01-27T07:23:28.952Z,1.79
2024-01-27T07:25:57.246Z,1.82
2024-01-27T07:28:24.648Z,1.83
2024-01-27T07:30:51.946Z,1.87
2024-01-27T07:33:19.399Z,1.88
2024-01-27T07:35:46.855Z,1.89
2024-01-27T07:38:17.080Z,1.90
2024-01-27T07:40:44.411Z,1.95
2024-01-27T07:43:14.844Z,1.98
2024-01-27T07:45:42.382Z,1.99
2024-01-27T07:48:12.718Z,1.99
2024-01-27T07:50:40.213Z,2.03
2024-01-27T07:53:07.662Z,2.05
2024-01-27T07:55:35.049Z,2.05
2024-01-27T07:58:02.403Z,2.06
2024-01-27T08:00:29.786Z,2.06
2024-01-27T08:02:57.214Z,2.08
2024-01-27T08:05:25.222Z,2.08
2024-01-27T08:07:52.655Z,2.09
2024-01-27T08:10:20.162Z,2.12
2024-01-27T08:12:47.493Z,2.11
2024-01-27T08:15:14.943Z,2.14
2024-01-27T08:17:42.310Z,2.10
2024-01-27T08:20:11.223Z,2.04
2024-01-27T08:22:38.505Z,2.02
2024-01-27T08:25:11.901Z,1.98
2024-01-27T08:27:39.228Z,1.89
2024-01-27T08:30:10.119Z,1.83
2024-01-27T08:32:37.794Z,1.79
2024-01-27T08:35:07.337Z,1.75
2024-01-27T08:37:40.401Z,1.71
2024-01-27T08:40:09.139Z,1.65
2024-01-27T08:42:36.492Z,1.63
2024-01-27T08:45:04.894Z,1.58
2024-01-27T08:47:32.677Z,1.55
2024-01-27T08:50:00.558Z,1.51
2024-01-27T08:52:27.973Z,1.50
2024-01-27T08:54:55.417Z,1.51
2024-01-27T08:57:25.452Z,1.58
2024-01-27T08:59:52.897Z,1.62
2024-01-27T09:02:22.916Z,1.59
2024-01-27T09:04:50.282Z,1.61
2024-01-27T09:07:18.473Z,1.59
2024-01-27T09:09:48.748Z,1.58
2024-01-27T09:12:16.574Z,1.53
2024-01-27T09:14:46.909Z,1.50
2024-01-27T09:17:14.236Z,1.53
2024-01-27T09:19:41.787Z,1.54
2024-01-27T09:22:09.346Z,1.62
2024-01-27T09:24:36.753Z,1.68
2024-01-27T09:27:06.938Z,1.76
2024-01-27T09:29:34.306Z,1.83
2024-01-27T09:32:01.909Z,1.90
2024-01-27T09:34:29.503Z,1.93
2024-01-27T09:36:57.085Z,2.01
2024-01-27T09:39:24.548Z,2.08
2024-01-27T09:41:53.153Z,2.10
2024-01-27T09:44:23.297Z,2.18
2024-01-27T09:46:50.734Z,2.19
2024-01-27T09:49:18.469Z,2.24
2024-01-27T09:51:46.013Z,2.27
2024-01-27T09:54:14.940Z,2.29
2024-01-27T09:56:47.242Z,2.32
2024-01-27T09:59:17.192Z,2.37
2024-01-27T10:01:44.721Z,2.43
2024-01-27T10:04:13.247Z,2.46
2024-01-27T10:06:41.601Z,2.52
2024-01-27T10:09:09.418Z,2.50
2024-01-27T10:11:38.127Z,2.54
2024-01-27T10:14:05.524Z,2.55
2024-01-27T10:16:50.650Z,2.52
2024-01-27T10:19:19.661Z,2.55
2024-01-27T10:21:48.092Z,2.53
2024-01-27T10:24:16.519Z,2.52
2024-01-27T10:26:44.013Z,2.54
2024-01-27T10:29:14.141Z,2.52
2024-01-27T10:31:41.418Z,2.56
2024-01-27T10:34:16.751Z,2.58
2024-01-27T10:36:46.877Z,2.62
2024-01-27T10:39:25.422Z,2.65
2024-01-27T10:41:53.233Z,2.64
2024-01-27T10:44:21.368Z,2.66
2024-01-27T10:46:50.801Z,2.67
2024-01-27T10:49:19.415Z,2.69
2024-01-27T10:51:52.062Z,2.71
2024-01-27T10:54:27.275Z,2.70
2024-01-27T10:56:57.004Z,2.77
2024-01-27T10:59:27.681Z,2.76
2024-01-27T11:01:56.260Z,2.73
2024-01-27T11:04:24.413Z,2.78
2024-01-27T11:06:52.302Z,2.80
2024-01-27T11:09:23.566Z,2.78
2024-01-27T11:11:51.120Z,2.83
2024-01-27T11:14:18.482Z,2.79
2024-01-27T11:16:49.259Z,2.83
2024-01-27T11:19:20.245Z,2.82
2024-01-27T11:21:47.688Z,2.84
2024-01-27T11:24:19.608Z,2.87
2024-01-27T11:26:47.086Z,2.88
2024-01-27T11:29:21.416Z,2.88
2024-01-27T11:31:50.339Z,2.89
2024-01-27T11:34:22.067Z,2.87
2024-01-27T11:36:49.697Z,2.95
2024-01-27T11:39:28.290Z,2.96
2024-01-27T11:42:10.290Z,2.96
2024-01-27T11:44:38.386Z,2.97
2024-01-27T11:47:06.455Z,2.94
2024-01-27T11:49:35.187Z,2.98
2024-01-27T11:52:02.642Z,3.01
2024-01-27T11:54:30.152Z,2.98
2024-01-27T11:56:57.526Z,3.01
2024-01-27T11:59:27.550Z,3.03
2024-01-27T12:01:54.859Z,3.07
2024-01-27T12:04:22.911Z,3.10
2024-01-27T12:06:50.439Z,3.15
2024-01-27T12:09:19.837Z,3.15
2024-01-27T12:11:47.343Z,3.20
2024-01-27T12:14:15.284Z,3.24
2024-01-27T12:16:42.969Z,3.26
2024-01-27T12:19:12.515Z,3.25
2024-01-27T12:21:39.899Z,3.30
2024-01-27T12:24:20.048Z,3.35
2024-01-27T12:26:49.435Z,3.41
2024-01-27T12:29:18.269Z,3.40
2024-01-27T12:31:46.730Z,3.47
2024-01-27T12:34:14.133Z,3.50
2024-01-27T12:36:46.164Z,3.46
2024-01-27T12:39:16.446Z,3.48
2024-01-27T12:41:45.651Z,3.41
2024-01-27T12:44:13.016Z,3.42
2024-01-27T12:46:40.391Z,3.40
2024-01-27T12:49:07.998Z,3.40
2024-01-27T12:51:39.554Z,3.37
2024-01-27T12:54:08.321Z,3.34
2024-01-27T12:56:36.440Z,3.35
2024-01-27T12:59:04.824Z,3.36
2024-01-27T13:01:34.708Z,3.36
2024-01-27T13:04:02.219Z,3.36
2024-01-27T13:06:32.175Z,3.30
2024-01-27T13:08:59.642Z,3.29
2024-01-27T13:11:30.238Z,3.32
2024-01-27T13:13:57.617Z,3.31
2024-01-27T13:16:25.563Z,3.31
2024-01-27T13:18:55.922Z,3.33
2024-01-27T13:21:23.284Z,3.36
2024-01-27T13:23:53.563Z,3.32
2024-01-27T13:26:21.795Z,3.29
2024-01-27T13:28:50.511Z,3.32
2024-01-27T13:31:18.509Z,3.32
2024-01-27T13:33:49.416Z,3.31
2024-01-27T13:36:18.377Z,3.27
2024-01-27T13:38:46.444Z,3.23
2024-01-27T13:41:13.712Z,3.23
2024-01-27T13:43:41.631Z,3.21
2024-01-27T13:46:08.960Z,3.23
2024-01-27T13:48:36.863Z,3.22
2024-01-27T13:51:04.799Z,3.25
2024-01-27T13:53:39.130Z,3.22
2024-01-27T13:56:14.772Z,3.22
2024-01-27T13:58:43.247Z,3.19
2024-01-27T14:01:10.660Z,3.19
2024-01-27T14:03:38.947Z,3.19
2024-01-27T14:06:07.736Z,3.18
2024-01-27T14:08:35.343Z,3.19
2024-01-27T14:11:02.676Z,3.21
2024-01-27T14:13:29.872Z,3.17
2024-01-27T14:15:57.192Z,3.13
2024-01-27T14:18:24.591Z,3.09
2024-01-27T14:20:52.320Z,3.05
2024-01-27T14:23:19.909Z,3.02
2024-01-27T14:25:48.081Z,2.99
2024-01-27T14:28:16.373Z,2.98
2024-01-27T14:30:45.537Z,2.95
2024-01-27T14:33:13.997Z,2.90
2024-01-27T14:35:41.579Z,2.89
2024-01-27T14:38:10.907Z,2.86
2024-01-27T14:40:38.930Z,2.84
2024-01-27T14:43:11.090Z,2.82
2024-01-27T14:45:38.338Z,2.77
2024-01-27T14:48:06.711Z,2.74
2024-01-27T14:50:34.115Z,2.73
2024-01-27T14:53:06.861Z,2.70
2024-01-27T14:55:34.890Z,2.63
2024-01-27T14:58:05.240Z,2.57
2024-01-27T15:00:33.338Z,2.53
2024-01-27T15:03:03.525Z,2.48
2024-01-27T15:05:31.953Z,2.45
2024-01-27T15:07:59.988Z,2.43
2024-01-27T15:10:27.202Z,2.40
2024-01-27T15:12:54.676Z,2.40
2024-01-27T15:15:25.832Z,2.35
2024-01-27T15:18:01.866Z,2.33
2024-01-27T15:20:30.266Z,2.32
2024-01-27T15:22:58.073Z,2.32
2024-01-27T15:25:25.934Z,2.32
2024-01-27T15:27:53.357Z,2.31
2024-01-27T15:30:20.773Z,2.30
2024-01-27T15:32:49.118Z,2.26
2024-01-27T15:35:22.401Z,2.19
2024-01-27T15:37:52.060Z,2.19
2024-01-27T15:40:20.975Z,2.21
2024-01-27T15:42:48.550Z,2.17
2024-01-27T15:45:15.910Z,2.16
2024-01-27T15:47:44.236Z,2.10
2024-01-27T15:50:14.845Z,2.10
2024-01-27T15:52:42.243Z,2.10
2024-01-27T15:55:09.769Z,2.05
2024-01-27T15:57:39.009Z,2.08
2024-01-27T16:00:11.682Z,2.08
2024-01-27T16:02:39.404Z,2.10
2024-01-27T16:05:06.998Z,2.09
2024-01-27T16:07:34.309Z,2.10
2024-01-27T16:10:03.295Z,2.13
2024-01-27T16:12:36.211Z,2.14
2024-01-27T16:15:05.606Z,2.20
2024-01-27T16:17:32.999Z,2.28
2024-01-27T16:20:01.598Z,2.36
2024-01-27T16:22:29.098Z,2.49
2024-01-27T16:24:56.349Z,2.52
2024-01-27T16:27:30.100Z,2.57
2024-01-27T16:29:59.037Z,2.62
2024-01-27T16:32:26.450Z,2.70
2024-01-27T16:34:54.087Z,2.73
2024-01-27T16:37:22.431Z,2.75
2024-01-27T16:39:49.662Z,2.78
2024-01-27T16:42:17.143Z,2.82
2024-01-27T16:44:44.464Z,2.80
2024-01-27T16:47:11.817Z,2.80
2024-01-27T16:49:39.207Z,2.83
2024-01-27T16:52:06.845Z,2.90
2024-01-27T16:54:34.274Z,2.96
2024-01-27T16:57:01.742Z,3.05
2024-01-27T16:59:30.563Z,3.09
2024-01-27T17:01:59.117Z,3.13
2024-01-27T17:04:26.367Z,3.22
2024-01-27T17:06:53.721Z,3.23
2024-01-27T17:09:21.025Z,3.28
2024-01-27T17:11:48.332Z,3.34
2024-01-27T17:14:15.705Z,3.34
2024-01-27T17:16:43.004Z,3.37
2024-01-27T17:19:10.409Z,3.37
2024-01-27T17:21:38.176Z,3.40
2024-01-27T17:24:05.986Z,3.42
2024-01-27T17:26:34.135Z,3.47
2024-01-27T17:29:01.968Z,3.46
2024-01-27T17:31:29.319Z,3.51
2024-01-27T17:33:56.769Z,3.54
2024-01-27T17:36:25.001Z,3.54
2024-01-27T17:38:53.094Z,3.56
2024-01-27T17:41:20.524Z,3.56
2024-01-27T17:43:47.826Z,3.59
2024-01-27T17:46:15.430Z,3.63
2024-01-27T17:48:42.873Z,3.66
2024-01-27T17:51:11.629Z,3.68
2024-01-27T17:53:39.101Z,3.67
2024-01-27T17:56:06.560Z,3.73
2024-01-27T17:58:33.946Z,3.74
2024-01-27T18:01:01.599Z,3.78
2024-01-27T18:03:29.189Z,3.78
2024-01-27T18:05:56.691Z,3.81
2024-01-27T18:08:23.969Z,3.83
2024-01-27T18:10:51.302Z,3.83
2024-01-27T18:13:18.551Z,3.81
2024-01-27T18:15:46.077Z,3.87
2024-01-27T18:18:13.773Z,3.89
2024-01-27T18:20:41.735Z,3.90
2024-01-27T18:23:09.139Z,3.91
2024-01-27T18:25:38.206Z,3.93
2024-01-27T18:28:06.052Z,3.94
2024-01-27T18:30:33.380Z,3.95
2024-01-27T18:33:05.236Z,3.97
2024-01-27T18:35:33.272Z,4.01
2024-01-27T18:38:00.602Z,4.01
2024-01-27T18:40:27.945Z,4.01
2024-01-27T18:42:55.327Z,4.02
2024-01-27T18:45:22.804Z,4.02
2024-01-27T18:47:50.266Z,4.02
2024-01-27T18:50:17.743Z,4.03
2024-01-27T18:52:45.451Z,4.04
2024-01-27T18:55:15.932Z,4.05
2024-01-27T18:57:43.402Z,4.06
2024-01-27T19:00:11.397Z,4.07
2024-01-27T19:02:38.894Z,4.06
2024-01-27T19:05:09.762Z,4.07
2024-01-27T19:07:37.521Z,4.09
2024-01-27T19:10:05.991Z,4.08
2024-01-27T19:12:33.690Z,4.10
2024-01-27T19:15:02.491Z,4.10
2024-01-27T19:17:30.251Z,4.09
2024-01-27T19:19:57.849Z,4.09
2024-01-27T19:22:25.488Z,4.11
2024-01-27T19:24:52.903Z,4.12
2024-01-27T19:27:20.249Z,4.11
2024-01-27T19:29:47.608Z,4.13
2024-01-27T19:32:15.042Z,4.14
2024-01-27T19:34:42.976Z,4.14
2024-01-27T19:37:10.449Z,4.15
2024-01-27T19:39:37.833Z,4.13
2024-01-27T19:42:05.719Z,4.14
2024-01-27T19:44:33.211Z,4.14
2024-01-27T19:47:00.526Z,4.14
2024-01-27T19:49:29.250Z,4.14
2024-01-27T19:51:56.978Z,4.16
2024-01-27T19:54:24.448Z,4.17
2024-01-27T19:56:52.066Z,4.19
2024-01-27T19:59:19.761Z,4.19
2024-01-27T20:01:47.270Z,4.19
2024-01-27T20:04:15.415Z,4.19
2024-01-27T20:06:43.101Z,4.19
2024-01-27T20:09:16.250Z,4.20
2024-01-27T20:11:45.344Z,4.20
2024-01-27T20:14:13.752Z,4.20
2024-01-27T20:16:44.137Z,4.23
2024-01-27T20:19:11.658Z,4.19
2024-01-27T20:21:39.193Z,4.20
2024-01-27T20:24:07.625Z,4.23
2024-01-27T20:26:35.148Z,4.22
2024-01-27T20:29:02.511Z,4.22
2024-01-27T20:31:29.979Z,4.19
2024-01-27T20:33:57.528Z,4.20
2024-01-27T20:36:26.394Z,4.22
2024-01-27T20:38:54.896Z,4.22
2024-01-27T20:41:23.234Z,4.21
2024-01-27T20:43:50.924Z,4.22
2024-01-27T20:46:19.345Z,4.22
2024-01-27T20:48:46.835Z,4.22
2024-01-27T20:51:14.499Z,4.21
2024-01-27T20:53:41.952Z,4.21
2024-01-27T20:56:09.368Z,4.19
2024-01-27T20:58:38.352Z,4.21
2024-01-27T21:01:06.303Z,4.22
2024-01-27T21:03:33.839Z,4.23
2024-01-27T21:06:01.471Z,4.23
2024-01-27T21:08:38.139Z,4.23
2024-01-27T21:11:10.685Z,4.25
2024-01-27T21:13:40.090Z,4.23
2024-01-27T21:16:10.874Z,4.22
2024-01-27T21:18:38.644Z,4.23
2024-01-27T21:21:07.223Z,4.23
2024-01-27T21:23:35.911Z,4.21
2024-01-27T21:26:04.409Z,4.23
2024-01-27T21:28:32.307Z,4.25
2024-01-27T21:30:59.766Z,4.26
2024-01-27T21:33:28.977Z,4.25
2024-01-27T21:35:58.302Z,4.27
2024-01-27T21:38:25.511Z,4.27
2024-01-27T21:40:52.811Z,4.29
2024-01-27T21:43:20.221Z,4.29
2024-01-27T21:45:48.705Z,4.30
2024-01-27T21:48:17.004Z,4.30
2024-01-27T21:50:44.664Z,4.31
2024-01-27T21:53:12.123Z,4.29
2024-01-27T21:55:39.432Z,4.29
2024-01-27T21:58:06.757Z,4.29
2024-01-27T22:00:35.024Z,4.30
2024-01-27T22:03:02.957Z,4.31
2024-01-27T22:05:30.701Z,4.27
2024-01-27T22:07:59.480Z,4.26
2024-01-27T22:10:26.881Z,4.27
2024-01-27T22:12:55.204Z,4.27
2024-01-27T22:15:23.837Z,4.26
2024-01-27T22:17:51.231Z,4.29
2024-01-27T22:20:18.666Z,4.29
2024-01-27T22:22:46.153Z,4.26
2024-01-27T22:25:13.458Z,4.29
2024-01-27T22:27:41.448Z,4.28
2024-01-27T22:30:15.868Z,4.28
2024-01-27T22:32:43.678Z,4.27
2024-01-27T22:35:11.635Z,4.25
2024-01-27T22:37:38.914Z,4.25
2024-01-27T22:40:08.652Z,4.24
2024-01-27T22:42:36.933Z,4.28
2024-01-27T22:45:04.977Z,4.29
2024-01-27T22:47:33.154Z,4.27
2024-01-27T22:50:05.176Z,4.28
2024-01-27T22:52:33.559Z,4.29
2024-01-27T22:55:01.689Z,4.29
2024-01-27T22:57:30.583Z,4.25
2024-01-27T22:59:58.067Z,4.28
2024-01-27T23:02:25.406Z,4.27
2024-01-27T23:04:54.275Z,4.29
2024-01-27T23:07:21.934Z,4.28
2024-01-27T23:09:49.473Z,4.30
2024-01-27T23:12:18.085Z,4.29
2024-01-27T23:14:45.570Z,4.33
2024-01-27T23:17:13.895Z,4.32
2024-01-27T23:19:41.657Z,4.33
2024-01-27T23:22:09.022Z,4.31
2024-01-27T23:24:36.316Z,4.33
2024-01-27T23:27:04.199Z,4.35
2024-01-27T23:29:34.170Z,4.36
2024-01-27T23:32:01.712Z,4.34
2024-01-27T23:34:30.199Z,4.35
2024-01-27T23:36:57.805Z,4.33
2024-01-27T23:39:25.051Z,4.36
2024-01-27T23:41:52.542Z,4.38
2024-01-27T23:44:20.859Z,4.38
2024-01-27T23:46:48.147Z,4.40
2024-01-27T23:49:16.312Z,4.42
2024-01-27T23:51:43.711Z,4.40
2024-01-27T23:54:14.600Z,4.37
2024-01-27T23:56:42.520Z,4.37
2024-01-27T23:59:11.647Z,4.37
